Time;durP1;ratioP1;P1;durP2;ratioP2;P2;SDS_P1;SDS_P2;PMS_P1;PMS_P2;Temp;Humidity;BMP_temperature;BMP_pressure;BME280_temperature;BME280_humidity;BME280_pressure;Samples;Min_cycle;Max_cycle;Signal;HPM_P1;HPM_P2
2023/04/01 00:01:02;;;;;;;10.38;1.80;;;10.50;99.90;;;;;;5094060;23;20153;-90
2023/04/01 00:03:03;;;;;;;11.27;1.52;;;10.60;99.90;;;;;;5094678;23;20156;-90
2023/04/01 00:05:05;;;;;;;10.77;1.55;;;10.60;99.90;;;;;;5069732;23;20187;-91
2023/04/01 00:07:06;;;;;;;10.13;1.52;;;10.60;99.90;;;;;;5094250;23;20240;-91
2023/04/01 00:09:07;;;;;;;9.57;1.40;;;10.60;99.90;;;;;;5094894;23;20203;-90
2023/04/01 00:11:07;;;;;;;9.52;1.20;;;10.70;99.90;;;;;;5093627;23;20184;-90
2023/04/01 00:13:09;;;;;;;9.75;1.10;;;10.60;99.90;;;;;;5093999;23;20149;-90
2023/04/01 00:15:11;;;;;;;9.07;1.40;;;10.70;99.90;;;;;;5118616;23;20191;-91
2023/04/01 00:17:12;;;;;;;5.85;1.02;;;10.80;99.90;;;;;;5094145;23;20160;-90
2023/04/01 00:19:13;;;;;;;7.03;1.10;;;10.70;99.90;;;;;;5094077;23;20231;-90
2023/04/01 00:21:15;;;;;;;7.97;1.25;;;10.60;99.90;;;;;;5093562;23;20492;-90
2023/04/01 00:23:16;;;;;;;8.57;1.25;;;10.60;99.90;;;;;;5069521;23;20157;-90
2023/04/01 00:25:18;;;;;;;4.57;1.10;;;10.60;99.90;;;;;;5069524;23;20157;-91
2023/04/01 00:27:19;;;;;;;7.55;1.20;;;10.70;99.90;;;;;;5069542;23;20187;-89
2023/04/01 00:29:20;;;;;;;6.85;1.23;;;10.70;99.90;;;;;;5069686;23;20152;-90
2023/04/01 00:31:20;;;;;;;6.03;1.10;;;10.70;99.90;;;;;;5069785;23;20208;-90
2023/04/01 00:33:21;;;;;;;8.05;1.30;;;10.80;99.90;;;;;;5093934;23;20240;-91
2023/04/01 00:35:22;;;;;;;9.10;1.10;;;10.80;99.90;;;;;;5069355;23;20197;-90
2023/04/01 00:37:24;;;;;;;5.68;1.02;;;10.90;99.90;;;;;;5093718;23;20183;-90
2023/04/01 00:39:26;;;;;;;4.03;0.68;;;10.80;99.90;;;;;;5069249;23;20243;-90
2023/04/01 00:41:27;;;;;;;6.88;0.80;;;10.80;99.90;;;;;;5069278;23;20169;-90
2023/04/01 00:43:28;;;;;;;4.93;0.90;;;10.70;99.90;;;;;;5093820;23;20149;-90
2023/04/01 00:45:31;;;;;;;6.10;0.80;;;10.70;99.90;;;;;;5069197;23;20572;-90
2023/04/01 00:47:32;;;;;;;5.53;0.82;;;10.70;99.90;;;;;;5118285;23;20204;-90
2023/04/01 00:49:46;;;;;;;6.82;0.98;;;10.80;99.90;;;;;;5068909;23;20509;-90
2023/04/01 00:51:50;;;;;;;4.57;0.73;;;10.70;99.90;;;;;;5094371;23;20212;-91
2023/04/01 00:53:53;;;;;;;6.75;0.77;;;10.70;99.90;;;;;;5093642;23;20156;-89
2023/04/01 00:56:00;;;;;;;5.10;0.82;;;10.70;99.90;;;;;;5093750;23;20188;-91
2023/04/01 00:58:05;;;;;;;6.80;0.90;;;10.60;99.90;;;;;;5118329;23;20148;-90
2023/04/01 01:00:11;;;;;;;4.10;0.90;;;10.60;99.90;;;;;;5093325;23;20187;-90
2023/04/01 01:02:14;;;;;;;5.75;1.00;;;10.70;99.90;;;;;;5093191;23;20176;-90
2023/04/01 01:04:30;;;;;;;3.60;0.70;;;10.70;99.90;;;;;;5093700;23;20491;-90
2023/04/01 01:06:50;;;;;;;3.53;0.63;;;10.70;99.90;;;;;;5093857;23;20231;-90
2023/04/01 01:09:07;;;;;;;2.58;0.95;;;10.60;99.90;;;;;;5093840;23;20235;-90
2023/04/01 01:11:12;;;;;;;7.10;1.00;;;10.90;99.90;;;;;;5093340;23;20583;-91
2023/04/01 01:13:50;;;;;;;3.65;0.80;;;10.80;99.90;;;;;;5093492;23;20149;-90
2023/04/01 01:16:15;;;;;;;6.20;0.90;;;10.80;99.90;;;;;;5090634;23;20235;-91
2023/04/01 01:18:23;;;;;;;6.95;1.40;;;10.70;99.90;;;;;;5069118;23;20145;-90
2023/04/01 01:20:37;;;;;;;7.60;1.73;;;10.70;99.90;;;;;;5093582;23;20157;-91
2023/04/01 01:22:59;;;;;;;4.75;1.52;;;10.80;99.90;;;;;;5093697;23;20259;-91
2023/04/01 01:25:26;;;;;;;7.47;2.00;;;11.00;99.90;;;;;;5094053;23;20244;-91
2023/04/01 01:27:29;;;;;;;6.97;2.05;;;10.90;99.90;;;;;;5093636;23;20220;-90
2023/04/01 01:29:42;;;;;;;7.97;2.20;;;10.90;99.90;;;;;;5118083;23;20152;-90
2023/04/01 01:31:55;;;;;;;5.90;2.40;;;10.90;99.90;;;;;;5093483;23;20188;-90
2023/04/01 01:34:21;;;;;;;12.10;2.75;;;10.90;99.90;;;;;;5093544;23;20630;-90
2023/04/01 01:36:26;;;;;;;8.43;2.63;;;10.80;99.90;;;;;;5093720;23;20579;-90
2023/04/01 01:38:30;;;;;;;12.85;3.47;;;10.90;99.90;;;;;;5119142;23;20152;-90
2023/04/01 01:40:39;;;;;;;5.63;2.95;;;11.00;99.90;;;;;;5093719;23;20152;-90
2023/04/01 01:42:46;;;;;;;11.13;3.45;;;11.00;99.90;;;;;;5118073;23;20254;-90
2023/04/01 01:44:48;;;;;;;11.20;3.47;;;10.80;99.90;;;;;;5093503;23;20160;-90
2023/04/01 01:46:50;;;;;;;9.75;3.60;;;10.80;99.90;;;;;;5093591;23;20247;-89
2023/04/01 01:48:52;;;;;;;10.02;3.33;;;10.90;99.90;;;;;;5118203;23;20203;-90
2023/04/01 01:50:53;;;;;;;10.10;3.70;;;11.00;99.90;;;;;;5118361;23;20149;-90
2023/04/01 01:53:09;;;;;;;16.00;3.88;;;11.00;99.90;;;;;;5117957;23;20175;-90
2023/04/01 01:55:45;;;;;;;11.57;3.10;;;11.00;99.90;;;;;;5093308;23;20192;-89
2023/04/01 01:57:46;;;;;;;13.15;2.97;;;11.10;99.90;;;;;;5037811;23;20612;-90
2023/04/01 01:59:55;;;;;;;12.75;3.33;;;11.00;99.90;;;;;;5094273;23;20161;-90
2023/04/01 02:02:00;;;;;;;13.40;3.60;;;11.00;99.90;;;;;;5094451;23;20786;-89
2023/04/01 02:04:02;;;;;;;12.10;3.00;;;10.80;99.90;;;;;;5094918;23;20184;-89
2023/04/01 02:06:07;;;;;;;10.95;2.90;;;10.70;99.90;;;;;;5094986;23;20515;-90
2023/04/01 02:08:14;;;;;;;15.02;3.20;;;10.70;99.90;;;;;;5094920;23;20153;-90
2023/04/01 02:10:15;;;;;;;10.38;3.00;;;10.80;99.90;;;;;;5096550;23;20156;-89
2023/04/01 02:12:18;;;;;;;12.30;3.33;;;10.70;99.90;;;;;;5094650;23;20247;-89
2023/04/01 02:14:21;;;;;;;17.92;3.90;;;10.90;99.90;;;;;;5094951;23;20215;-89
2023/04/01 02:16:32;;;;;;;13.82;3.20;;;10.90;99.90;;;;;;5095194;23;20161;-89
2023/04/01 02:18:37;;;;;;;10.82;3.05;;;10.70;99.90;;;;;;5094747;23;20232;-90
2023/04/01 02:20:40;;;;;;;13.52;2.65;;;10.70;99.90;;;;;;5094594;23;20157;-89
2023/04/01 02:22:46;;;;;;;11.45;2.90;;;10.60;99.90;;;;;;5094411;23;20203;-89
2023/04/01 02:24:49;;;;;;;16.13;4.22;;;10.60;99.90;;;;;;5094974;23;20186;-90
2023/04/01 02:26:53;;;;;;;16.45;3.50;;;10.60;99.90;;;;;;5094875;23;20480;-89
2023/04/01 02:28:56;;;;;;;18.23;4.10;;;10.80;99.90;;;;;;5094507;23;20508;-89
2023/04/01 02:31:02;;;;;;;12.75;3.45;;;10.80;99.90;;;;;;5094806;23;20628;-89
2023/04/01 02:33:05;;;;;;;12.90;3.28;;;11.00;99.90;;;;;;5094869;23;20175;-89
2023/04/01 02:35:10;;;;;;;14.98;3.53;;;10.90;99.90;;;;;;5094638;23;20197;-89
2023/04/01 02:37:12;;;;;;;16.88;3.65;;;10.90;99.90;;;;;;5094691;23;20149;-89
2023/04/01 02:39:13;;;;;;;21.63;3.60;;;10.80;99.90;;;;;;5094600;23;20149;-89
2023/04/01 02:41:14;;;;;;;13.90;3.63;;;10.80;99.90;;;;;;5096333;23;20160;-89
2023/04/01 02:43:16;;;;;;;15.15;4.57;;;10.90;99.90;;;;;;5096545;23;20156;-89
2023/04/01 02:45:17;;;;;;;17.25;4.65;;;10.80;99.90;;;;;;5070563;23;20749;-90
2023/04/01 02:47:18;;;;;;;21.17;4.75;;;10.80;99.90;;;;;;5070596;23;20477;-90
2023/04/01 02:49:19;;;;;;;15.57;4.38;;;10.80;99.90;;;;;;5094702;23;20192;-90
2023/04/01 02:51:20;;;;;;;13.48;4.85;;;10.60;99.90;;;;;;5070204;23;20196;-90
2023/04/01 02:53:20;;;;;;;26.17;4.88;;;10.70;99.90;;;;;;5094880;23;20153;-90
2023/04/01 02:55:21;;;;;;;15.65;4.70;;;10.70;99.90;;;;;;5094771;23;20239;-90
2023/04/01 02:57:22;;;;;;;15.88;4.97;;;10.70;99.90;;;;;;5095211;23;20332;-90
2023/04/01 02:59:23;;;;;;;16.20;4.93;;;10.60;99.90;;;;;;5095892;23;20514;-89
2023/04/01 03:01:24;;;;;;;12.93;4.95;;;10.70;99.90;;;;;;5095158;23;20169;-91
2023/04/01 03:03:25;;;;;;;17.92;4.75;;;10.80;99.90;;;;;;5094464;23;20674;-90
2023/04/01 03:05:25;;;;;;;15.77;5.28;;;10.80;99.90;;;;;;5094603;23;20239;-90
2023/04/01 03:07:26;;;;;;;19.13;5.60;;;10.90;99.90;;;;;;5070761;23;20153;-91
2023/04/01 03:09:28;;;;;;;17.92;5.72;;;11.00;99.90;;;;;;5070144;23;20684;-90
2023/04/01 03:11:29;;;;;;;21.17;6.05;;;10.80;99.90;;;;;;5094669;23;20169;-90
2023/04/01 03:13:30;;;;;;;16.10;5.45;;;10.60;99.90;;;;;;5096177;23;20149;-90
2023/04/01 03:15:31;;;;;;;14.73;5.95;;;10.70;99.90;;;;;;5119006;23;20275;-89
2023/04/01 03:17:31;;;;;;;18.48;6.32;;;10.70;99.90;;;;;;5118842;23;20152;-90
2023/04/01 03:19:32;;;;;;;14.23;4.43;;;10.70;99.90;;;;;;5070404;23;20154;-89
2023/04/01 03:21:36;;;;;;;18.80;5.45;;;10.70;99.90;;;;;;5095786;23;20255;-89
2023/04/01 03:23:37;;;;;;;19.20;5.65;;;10.70;99.90;;;;;;5069749;23;20153;-89
2023/04/01 03:25:38;;;;;;;16.05;5.20;;;10.60;99.90;;;;;;5094364;23;20149;-91
2023/04/01 03:27:39;;;;;;;16.73;5.60;;;10.60;99.90;;;;;;5071094;23;20145;-89
2023/04/01 03:29:40;;;;;;;18.77;5.22;;;10.60;99.90;;;;;;5118857;23;20223;-90
2023/04/01 03:31:41;;;;;;;16.92;5.35;;;10.80;99.90;;;;;;5094242;23;20180;-90
2023/04/01 03:33:42;;;;;;;15.38;5.63;;;10.70;99.90;;;;;;5094374;23;20188;-93
2023/04/01 03:35:43;;;;;;;17.95;5.18;;;10.60;99.90;;;;;;5069674;23;20276;-90
2023/04/01 03:37:44;;;;;;;16.02;4.53;;;10.60;99.90;;;;;;5070495;23;20540;-90
2023/04/01 03:39:45;;;;;;;18.52;4.82;;;10.60;99.90;;;;;;5094330;23;20515;-90
2023/04/01 03:41:46;;;;;;;16.05;5.30;;;10.80;99.90;;;;;;5118750;23;20248;-89
2023/04/01 03:43:47;;;;;;;13.32;5.50;;;10.60;99.90;;;;;;5094494;23;20168;-89
2023/04/01 03:45:50;;;;;;;19.77;5.35;;;10.60;99.90;;;;;;5069896;23;20212;-89
2023/04/01 03:47:51;;;;;;;22.30;5.28;;;10.50;99.90;;;;;;5094285;23;20476;-90
2023/04/01 03:49:52;;;;;;;18.30;5.10;;;10.60;99.90;;;;;;5093972;23;20690;-89
2023/04/01 03:51:52;;;;;;;10.10;4.47;;;10.60;99.90;;;;;;5094163;23;20253;-90
2023/04/01 03:53:53;;;;;;;20.80;6.28;;;10.50;99.90;;;;;;5094063;23;20626;-90
2023/04/01 03:55:54;;;;;;;12.60;4.90;;;10.50;99.90;;;;;;5094121;23;20195;-90
2023/04/01 03:57:55;;;;;;;13.00;4.35;;;10.70;99.90;;;;;;5094243;23;20600;-90
2023/04/01 03:59:56;;;;;;;11.45;4.88;;;10.60;99.90;;;;;;5094247;23;20184;-89
2023/04/01 04:01:57;;;;;;;13.82;4.63;;;10.60;99.90;;;;;;5095473;23;20247;-90
2023/04/01 04:03:58;;;;;;;18.23;5.03;;;10.60;99.90;;;;;;5094255;23;20211;-89
2023/04/01 04:05:58;;;;;;;8.85;4.18;;;10.80;99.90;;;;;;5094770;23;20588;-90
2023/04/01 04:07:59;;;;;;;12.90;4.43;;;10.70;99.90;;;;;;5118970;23;20144;-91
2023/04/01 04:10:00;;;;;;;9.40;4.53;;;10.70;99.90;;;;;;5069611;23;20158;-90
2023/04/01 04:12:01;;;;;;;11.85;4.50;;;10.60;99.90;;;;;;5069278;23;20261;-91
2023/04/01 04:14:02;;;;;;;13.30;4.97;;;10.50;99.90;;;;;;5094067;23;20524;-90
2023/04/01 04:16:04;;;;;;;8.63;4.65;;;10.50;99.90;;;;;;5118604;23;20275;-91
2023/04/01 04:18:05;;;;;;;9.52;4.18;;;10.50;99.90;;;;;;5093938;23;20200;-90
2023/04/01 04:20:06;;;;;;;10.85;4.55;;;10.60;99.90;;;;;;5118806;23;20492;-92
2023/04/01 04:22:07;;;;;;;12.23;4.50;;;10.70;99.90;;;;;;5093945;23;20202;-90
2023/04/01 04:24:08;;;;;;;14.48;4.57;;;10.60;99.90;;;;;;5069808;23;20542;-91
2023/04/01 04:26:41;;;;;;;6.82;4.05;;;10.60;99.90;;;;;;5079709;23;20157;-90
2023/04/01 04:28:42;;;;;;;9.65;4.50;;;10.60;99.90;;;;;;5093954;23;20160;-88
2023/04/01 04:30:43;;;;;;;12.93;4.50;;;10.60;99.90;;;;;;5069403;23;20250;-89
2023/04/01 04:32:44;;;;;;;11.18;4.78;;;10.60;99.90;;;;;;5094872;23;20216;-90
2023/04/01 04:34:46;;;;;;;9.23;4.30;;;10.40;99.90;;;;;;5070200;23;20177;-90
2023/04/01 04:36:47;;;;;;;9.52;4.63;;;10.40;99.90;;;;;;5118444;23;20199;-90
2023/04/01 04:38:48;;;;;;;8.23;3.85;;;10.40;99.90;;;;;;5069610;23;20161;-90
2023/04/01 04:40:49;;;;;;;6.25;3.40;;;10.50;99.90;;;;;;5069493;23;20161;-90
2023/04/01 04:42:50;;;;;;;10.65;3.65;;;10.50;99.90;;;;;;5118129;23;20251;-90
2023/04/01 04:44:51;;;;;;;8.60;3.50;;;10.40;99.90;;;;;;5069172;23;20236;-91
2023/04/01 04:46:52;;;;;;;9.70;3.17;;;10.50;99.90;;;;;;5069862;23;20152;-89
2023/04/01 04:48:53;;;;;;;6.63;3.30;;;10.50;99.90;;;;;;5069193;23;20157;-90
2023/04/01 04:50:54;;;;;;;6.35;3.22;;;10.40;99.90;;;;;;5093790;23;20232;-91
2023/04/01 04:52:57;;;;;;;6.03;3.00;;;10.40;99.90;;;;;;5093473;23;20627;-90
2023/04/01 04:54:58;;;;;;;7.50;3.50;;;10.20;99.90;;;;;;5118392;23;20175;-91
2023/04/01 04:56:59;;;;;;;10.07;3.25;;;10.30;99.90;;;;;;5069358;23;20244;-90
2023/04/01 04:59:01;;;;;;;7.90;3.13;;;10.40;99.90;;;;;;5118358;23;20153;-88
2023/04/01 05:01:16;;;;;;;11.15;3.92;;;10.30;99.90;;;;;;5071435;23;20592;-90
2023/04/01 05:03:17;;;;;;;7.45;3.88;;;10.30;99.90;;;;;;5093796;23;20157;-90
2023/04/01 05:05:19;;;;;;;13.27;4.13;;;10.30;99.90;;;;;;5118486;23;20640;-90
2023/04/01 05:07:20;;;;;;;9.23;4.38;;;10.40;99.90;;;;;;5093695;23;20234;-90
2023/04/01 05:09:21;;;;;;;9.07;4.68;;;10.50;99.90;;;;;;5118561;23;20179;-90
2023/04/01 05:11:21;;;;;;;11.38;5.00;;;10.60;99.90;;;;;;5069545;23;20486;-90
2023/04/01 05:13:23;;;;;;;12.18;4.78;;;10.60;99.90;;;;;;5093627;23;20157;-89
2023/04/01 05:15:24;;;;;;;10.32;4.55;;;10.50;99.90;;;;;;5069013;23;20287;-90
2023/04/01 05:17:25;;;;;;;12.57;5.50;;;10.50;99.90;;;;;;5093421;23;20537;-89
2023/04/01 05:19:26;;;;;;;12.60;5.53;;;10.60;99.90;;;;;;5069323;23;20201;-91
2023/04/01 05:21:27;;;;;;;12.63;5.22;;;10.60;99.90;;;;;;5069276;23;20173;-91
2023/04/01 05:23:31;;;;;;;13.68;5.85;;;10.50;99.90;;;;;;5118219;23;20145;-90
2023/04/01 05:25:32;;;;;;;12.18;5.93;;;10.50;99.90;;;;;;5118270;23;20156;-90
2023/04/01 05:27:33;;;;;;;11.43;5.68;;;10.60;99.90;;;;;;5069238;23;20156;-90
2023/04/01 05:29:34;;;;;;;12.45;6.38;;;10.50;99.90;;;;;;5069157;23;20513;-89
2023/04/01 05:31:40;;;;;;;14.88;6.70;;;10.60;99.90;;;;;;5069599;23;20169;-90
2023/04/01 05:33:40;;;;;;;15.40;6.95;;;10.50;99.90;;;;;;5093600;23;20168;-90
2023/04/01 05:35:41;;;;;;;15.65;7.07;;;10.50;99.90;;;;;;5093089;23;20189;-90
2023/04/01 05:37:42;;;;;;;15.77;7.22;;;10.50;99.90;;;;;;5093494;23;20615;-89
2023/04/01 05:39:43;;;;;;;13.65;7.07;;;10.50;99.90;;;;;;5093448;23;20149;-89
2023/04/01 05:41:44;;;;;;;15.20;7.13;;;10.50;99.90;;;;;;5093417;23;20200;-90
2023/04/01 05:43:45;;;;;;;17.85;7.75;;;10.60;99.90;;;;;;5093479;23;20160;-90
2023/04/01 05:46:09;;;;;;;23.23;8.18;;;10.50;99.90;;;;;;5088300;23;20180;-89
2023/04/01 05:48:16;;;;;;;15.18;7.47;;;10.50;99.90;;;;;;5093672;23;20256;-89
2023/04/01 05:50:17;;;;;;;17.40;7.07;;;10.50;99.90;;;;;;5117826;23;20160;-89
2023/04/01 05:52:17;;;;;;;14.45;7.38;;;10.50;99.90;;;;;;5093131;23;20199;-89
2023/04/01 05:54:19;;;;;;;14.73;7.70;;;10.60;99.90;;;;;;5118146;23;20155;-89
2023/04/01 05:56:20;;;;;;;17.90;7.32;;;10.40;99.90;;;;;;5093326;23;20503;-89
2023/04/01 05:58:24;;;;;;;17.38;7.28;;;10.40;99.90;;;;;;5069778;23;20150;-90
2023/04/01 06:00:25;;;;;;;13.50;5.88;;;10.40;99.90;;;;;;5118409;23;20179;-89
2023/04/01 06:02:27;;;;;;;17.75;8.07;;;10.40;99.90;;;;;;5069006;23;20268;-90
2023/04/01 06:04:37;;;;;;;13.25;6.38;;;10.40;99.90;;;;;;5068914;23;20545;-90
2023/04/01 06:06:39;;;;;;;16.85;7.18;;;10.30;99.90;;;;;;5093172;23;20239;-90
2023/04/01 06:08:43;;;;;;;18.58;7.82;;;10.40;99.90;;;;;;5093739;23;20612;-89
2023/04/01 06:10:51;;;;;;;16.42;7.03;;;10.50;99.90;;;;;;5069117;23;20156;-91
2023/04/01 06:12:55;;;;;;;20.92;7.55;;;10.50;99.90;;;;;;5068768;23;20177;-90
2023/04/01 06:15:13;;;;;;;21.27;7.32;;;10.50;99.90;;;;;;5093196;23;20631;-90
2023/04/01 06:17:28;;;;;;;22.27;7.40;;;10.60;99.90;;;;;;5093246;23;20151;-90
2023/04/01 06:19:47;;;;;;;19.05;7.63;;;10.60;99.90;;;;;;5093592;23;20180;-91
2023/04/01 06:22:00;;;;;;;17.92;8.00;;;10.70;99.90;;;;;;5093473;23;20651;-89
2023/04/01 06:24:37;;;;;;;13.60;4.38;;;10.60;99.90;;;;;;5118654;23;20156;-90
2023/04/01 06:26:44;;;;;;;16.90;7.90;;;10.40;99.90;;;;;;5083942;23;20153;-90
2023/04/01 06:29:26;;;;;;;18.92;7.47;;;10.40;99.90;;;;;;5093365;23;20211;-89
2023/04/01 06:31:57;;;;;;;16.20;8.40;;;10.50;99.90;;;;;;5093371;23;20173;-90
2023/04/01 06:34:16;;;;;;;15.70;7.33;;;10.50;99.90;;;;;;5118295;23;20167;-91
2023/04/01 06:36:34;;;;;;;17.15;7.05;;;10.40;99.90;;;;;;5092964;23;20302;-90
2023/04/01 06:39:21;;;;;;;15.90;6.80;;;10.50;99.90;;;;;;5094208;23;20618;-90
2023/04/01 06:42:06;;;;;;;13.48;5.75;;;10.40;99.90;;;;;;5090603;23;20608;-90
2023/04/01 06:44:11;;;;;;;16.48;7.07;;;10.30;99.90;;;;;;5077214;23;20152;-90
2023/04/01 06:46:55;;;;;;;14.88;6.00;;;10.30;99.90;;;;;;5094032;23;20512;-90
2023/04/01 06:50:03;;;;;;;11.38;5.55;;;10.40;99.90;;;;;;5094637;23;20161;-90
2023/04/01 06:52:36;;;;;;;10.23;4.90;;;10.20;99.90;;;;;;5116205;23;20183;-91
2023/04/01 06:55:45;;;;;;;11.77;5.35;;;10.40;99.90;;;;;;5049487;23;20193;-90
2023/04/01 06:58:39;;;;;;;7.93;4.80;;;10.50;99.90;;;;;;5091269;23;20157;-91
2023/04/01 07:00:44;;;;;;;13.63;4.85;;;10.50;99.90;;;;;;5091214;23;20157;-90
2023/04/01 07:02:55;;;;;;;8.20;4.55;;;10.40;99.90;;;;;;5119071;23;20172;-90
2023/04/01 07:04:59;;;;;;;12.20;4.45;;;10.40;99.90;;;;;;5097232;23;20161;-90
2023/04/01 07:07:19;;;;;;;15.02;5.55;;;10.50;99.90;;;;;;5094940;23;20271;-91
2023/04/01 07:09:35;;;;;;;8.55;4.50;;;10.50;99.90;;;;;;5094977;23;20488;-90
2023/04/01 07:12:19;;;;;;;7.57;4.22;;;10.60;99.90;;;;;;5115641;23;20215;-90
2023/04/01 07:14:42;;;;;;;6.25;4.20;;;10.70;99.90;;;;;;5114626;23;20214;-91
2023/04/01 07:16:58;;;;;;;7.38;4.22;;;10.90;99.90;;;;;;5096659;23;20153;-91
2023/04/01 07:19:10;;;;;;;5.95;4.38;;;10.90;99.90;;;;;;5094636;23;20160;-90
2023/04/01 07:21:40;;;;;;;7.65;4.10;;;10.80;99.90;;;;;;5095001;23;20173;-90
2023/04/01 07:23:51;;;;;;;8.02;4.07;;;10.90;99.90;;;;;;5096660;23;20156;-91
2023/04/01 07:26:31;;;;;;;9.13;3.42;;;10.90;99.90;;;;;;5115068;23;20148;-90
2023/04/01 07:28:52;;;;;;;5.68;3.00;;;10.80;99.90;;;;;;5094359;23;20160;-91
2023/04/01 07:31:40;;;;;;;6.38;3.13;;;10.70;99.90;;;;;;5092699;23;20176;-91
2023/04/01 07:33:53;;;;;;;6.82;3.20;;;10.70;99.90;;;;;;5095231;23;20252;-92
2023/04/01 07:36:20;;;;;;;5.20;3.25;;;10.80;99.90;;;;;;5094095;23;20184;-91
2023/04/01 07:39:00;;;;;;;4.10;2.28;;;10.70;99.90;;;;;;5088475;23;20153;-92
2023/04/01 07:41:25;;;;;;;3.88;1.80;;;10.70;99.90;;;;;;5103857;23;20682;-91
2023/04/01 07:43:55;;;;;;;4.90;1.92;;;10.80;99.90;;;;;;5094322;23;20519;-91
2023/04/01 07:46:21;;;;;;;3.92;1.33;;;10.90;99.90;;;;;;5064829;23;20160;-90
2023/04/01 07:48:38;;;;;;;2.47;1.50;;;10.60;99.90;;;;;;5094114;23;20608;-90
2023/04/01 07:50:52;;;;;;;3.88;1.50;;;10.50;99.90;;;;;;5094265;23;20491;-90
2023/04/01 07:52:59;;;;;;;2.17;1.40;;;10.70;99.90;;;;;;5094558;23;20220;-90
2023/04/01 07:55:07;;;;;;;33.65;16.58;;;10.80;99.90;;;;;;5093934;23;20216;-90
2023/04/01 07:57:16;;;;;;;6.03;2.00;;;11.00;99.90;;;;;;5093659;23;20148;-91
2023/04/01 07:59:52;;;;;;;2.83;1.90;;;11.00;99.90;;;;;;5093980;23;20152;-91
2023/04/01 08:02:27;;;;;;;4.97;2.30;;;10.90;99.90;;;;;;5094324;23;20266;-91
2023/04/01 08:04:51;;;;;;;19.02;9.73;;;11.10;99.90;;;;;;5094264;23;20738;-91
2023/04/01 08:07:07;;;;;;;5.47;2.33;;;11.20;99.90;;;;;;5094374;23;20149;-91
2023/04/01 08:09:32;;;;;;;3.45;1.85;;;11.20;99.90;;;;;;5094281;23;20687;-91
2023/04/01 08:12:22;;;;;;;7.18;3.35;;;11.20;99.90;;;;;;5094430;23;20176;-91
2023/04/01 08:14:58;;;;;;;1.65;1.20;;;11.00;99.90;;;;;;5111249;23;20181;-90
2023/04/01 08:17:25;;;;;;;1.83;0.77;;;11.10;99.90;;;;;;5098132;23;20543;-90
2023/04/01 08:19:34;;;;;;;2.00;0.82;;;11.10;99.90;;;;;;5093858;23;20235;-90
2023/04/01 08:21:43;;;;;;;3.03;0.82;;;10.90;99.90;;;;;;5094101;23;20531;-91
2023/04/01 08:23:48;;;;;;;1.25;1.10;;;10.80;99.90;;;;;;5095127;23;20148;-90
2023/04/01 08:25:49;;;;;;;1.35;0.52;;;10.70;99.90;;;;;;5095480;23;20224;-90
2023/04/01 08:28:15;;;;;;;0.75;0.65;;;10.60;99.90;;;;;;5069519;23;20263;-91
2023/04/01 08:30:25;;;;;;;1.50;0.73;;;10.80;99.90;;;;;;5095732;23;20149;-90
2023/04/01 08:32:37;;;;;;;1.40;0.80;;;10.80;99.90;;;;;;5095480;23;20279;-92
2023/04/01 08:34:42;;;;;;;2.70;0.80;;;11.00;99.90;;;;;;5094695;23;20156;-91
2023/04/01 08:36:54;;;;;;;2.63;1.10;;;11.00;99.90;;;;;;5093778;23;20157;-90
2023/04/01 08:39:01;;;;;;;2.13;1.10;;;10.90;99.90;;;;;;5095210;23;20149;-91
2023/04/01 08:41:21;;;;;;;3.17;1.00;;;10.80;99.90;;;;;;5094077;23;20590;-91
2023/04/01 08:44:04;;;;;;;2.03;1.50;;;10.90;99.90;;;;;;5095352;23;20160;-89
2023/04/01 08:46:23;;;;;;;6.80;1.48;;;10.80;99.90;;;;;;5094564;23;20511;-89
2023/04/01 08:48:36;;;;;;;3.63;1.90;;;10.80;99.90;;;;;;5094219;23;20157;-89
2023/04/01 08:51:04;;;;;;;3.00;1.38;;;10.90;99.90;;;;;;5094432;23;20157;-90
2023/04/01 08:53:38;;;;;;;3.83;1.40;;;10.90;99.90;;;;;;5094595;23;20279;-89
2023/04/01 08:56:15;;;;;;;3.65;1.60;;;11.10;99.90;;;;;;5093861;23;20196;-91
2023/04/01 08:58:44;;;;;;;2.83;1.55;;;11.10;99.90;;;;;;5094129;23;20157;-90
2023/04/01 09:01:03;;;;;;;4.38;1.60;;;11.10;99.90;;;;;;5094690;23;20160;-91
2023/04/01 09:03:43;;;;;;;1.85;1.30;;;10.90;99.90;;;;;;5093910;23;20149;-90
2023/04/01 09:05:56;;;;;;;5.10;1.48;;;10.90;99.90;;;;;;5093821;23;20157;-91
2023/04/01 09:08:22;;;;;;;4.35;1.40;;;11.10;99.90;;;;;;5093627;23;20171;-91
2023/04/01 09:10:42;;;;;;;1.95;1.10;;;11.00;99.90;;;;;;5093382;23;20227;-91
2023/04/01 09:13:21;;;;;;;3.42;1.35;;;11.00;99.90;;;;;;5093661;23;20156;-90
2023/04/01 09:15:30;;;;;;;1.40;1.02;;;10.90;99.90;;;;;;5093926;23;20185;-91
2023/04/01 09:17:44;;;;;;;6.05;1.50;;;11.00;99.90;;;;;;5093675;23;20163;-91
2023/04/01 09:20:09;;;;;;;1.98;0.82;;;11.30;99.90;;;;;;5094172;23;20156;-90
2023/04/01 09:22:32;;;;;;;4.78;1.45;;;11.30;99.90;;;;;;5093328;23;20212;-91
2023/04/01 09:24:55;;;;;;;2.00;1.45;;;11.50;99.90;;;;;;5093556;23;20161;-89
2023/04/01 09:27:26;;;;;;;2.85;1.38;;;11.60;99.90;;;;;;5093489;23;20203;-91
2023/04/01 09:30:04;;;;;;;4.20;1.17;;;11.90;99.90;;;;;;5093585;23;20171;-88
2023/04/01 09:32:32;;;;;;;1.95;0.80;;;12.20;99.90;;;;;;5094127;23;20176;-91
2023/04/01 09:34:56;;;;;;;1.02;0.60;;;12.20;99.90;;;;;;5094488;23;20603;-90
2023/04/01 09:37:10;;;;;;;1.13;0.60;;;12.00;99.90;;;;;;5094336;23;20236;-90
2023/04/01 09:39:26;;;;;;;4.90;0.70;;;11.80;99.90;;;;;;5095751;23;20156;-90
2023/04/01 09:41:59;;;;;;;1.02;0.47;;;11.70;99.90;;;;;;5093440;23;20185;-91
2023/04/01 09:44:14;;;;;;;1.33;0.55;;;11.30;99.90;;;;;;5095221;23;20153;-91
2023/04/01 09:46:52;;;;;;;0.75;0.38;;;11.20;99.90;;;;;;5093439;23;20172;-90
2023/04/01 09:49:46;;;;;;;1.85;0.35;;;11.30;99.90;;;;;;5093825;23;20153;-90
2023/04/01 09:52:15;;;;;;;0.98;0.60;;;11.40;99.90;;;;;;4973256;23;20635;-90
2023/04/01 09:54:19;;;;;;;1.15;0.65;;;11.50;99.90;;;;;;4973235;23;20161;-90
2023/04/01 09:56:57;;;;;;;0.45;0.43;;;11.70;99.90;;;;;;5014891;23;20544;-89
2023/04/01 09:59:39;;;;;;;2.78;0.98;;;11.50;99.90;;;;;;5094001;23;20216;-90
2023/04/01 10:02:26;;;;;;;4.68;0.95;;;11.60;99.90;;;;;;5112034;23;20180;-89
2023/04/01 10:04:49;;;;;;;1.27;0.70;;;11.60;99.90;;;;;;5071433;23;20165;-89
2023/04/01 10:07:04;;;;;;;1.33;0.68;;;11.20;99.90;;;;;;5093403;23;20157;-91
2023/04/01 10:09:25;;;;;;;0.90;0.85;;;11.20;99.90;;;;;;5093793;23;20153;-90
2023/04/01 10:12:02;;;;;;;2.05;0.85;;;11.40;99.90;;;;;;5094172;23;20188;-89
2023/04/01 10:14:08;;;;;;;2.60;0.93;;;11.20;99.90;;;;;;5093888;23;20238;-91
2023/04/01 10:16:24;;;;;;;2.67;0.95;;;11.10;99.90;;;;;;5092934;23;20192;-90
2023/04/01 10:18:43;;;;;;;2.15;0.75;;;11.30;99.90;;;;;;5093998;23;20603;-90
2023/04/01 10:21:12;;;;;;;3.92;0.90;;;11.20;99.90;;;;;;5093353;23;20175;-90
2023/04/01 10:23:25;;;;;;;3.53;1.00;;;11.30;99.90;;;;;;5094745;23;20153;-90
2023/04/01 10:25:59;;;;;;;4.88;1.08;;;11.30;99.90;;;;;;5095232;23;20152;-90
2023/04/01 10:28:10;;;;;;;1.15;0.60;;;11.20;99.90;;;;;;5095048;23;20210;-91
2023/04/01 10:31:04;;;;;;;1.98;1.13;;;11.00;99.90;;;;;;5045524;23;20146;-90
2023/04/01 10:33:50;;;;;;;4.22;1.08;;;10.90;99.90;;;;;;5055044;23;20727;-90
2023/04/01 10:36:28;;;;;;;2.45;1.08;;;11.30;99.90;;;;;;5070142;23;20247;-89
2023/04/01 10:38:44;;;;;;;3.28;1.10;;;11.50;99.90;;;;;;5045946;23;20203;-90
2023/04/01 10:41:15;;;;;;;3.95;1.00;;;11.70;99.90;;;;;;5066310;23;20153;-90
2023/04/01 10:43:51;;;;;;;3.88;1.35;;;11.70;99.90;;;;;;5083527;23;20183;-90
2023/04/01 10:46:05;;;;;;;4.65;1.20;;;11.80;99.90;;;;;;5095958;23;20662;-90
2023/04/01 10:48:22;;;;;;;3.60;1.40;;;11.50;99.90;;;;;;5070599;23;20217;-90
2023/04/01 10:50:51;;;;;;;3.47;1.23;;;11.60;99.90;;;;;;5095952;23;20456;-90
2023/04/01 10:53:10;;;;;;;2.45;0.65;;;11.70;99.90;;;;;;5094948;23;20612;-90
2023/04/01 10:56:06;;;;;;;1.92;1.00;;;11.60;99.90;;;;;;5094874;23;20248;-89
2023/04/01 10:59:04;;;;;;;3.20;1.00;;;12.00;99.90;;;;;;5115967;23;20215;-91
2023/04/01 11:02:07;;;;;;;3.60;1.15;;;12.10;99.90;;;;;;5116364;23;20164;-90
2023/04/01 11:05:13;;;;;;;3.33;1.02;;;11.90;99.90;;;;;;5070436;23;20555;-89
2023/04/01 11:07:58;;;;;;;3.08;0.80;;;11.90;99.90;;;;;;5095185;23;20576;-89
2023/04/01 11:10:17;;;;;;;3.35;0.93;;;11.50;99.90;;;;;;5095087;23;20157;-90
2023/04/01 11:13:00;;;;;;;2.13;1.08;;;11.50;99.90;;;;;;5097629;23;20157;-89
2023/04/01 11:15:20;;;;;;;1.90;1.00;;;11.70;99.90;;;;;;5095096;23;20200;-89
2023/04/01 11:17:42;;;;;;;3.50;1.35;;;11.70;99.90;;;;;;5094658;23;20203;-90
2023/04/01 11:19:45;;;;;;;1.95;0.73;;;11.90;99.90;;;;;;5094964;23;20230;-89
2023/04/01 11:22:09;;;;;;;2.58;0.85;;;11.70;99.90;;;;;;5095665;23;20559;-89
2023/04/01 11:24:54;;;;;;;1.35;0.70;;;11.70;99.90;;;;;;5095262;23;20157;-89
2023/04/01 11:27:37;;;;;;;1.25;0.75;;;11.70;99.90;;;;;;5055731;23;20164;-90
2023/04/01 11:29:47;;;;;;;4.90;0.82;;;11.50;99.90;;;;;;5094560;23;20196;-90